Time;durP1;ratioP1;P1;durP2;ratioP2;P2;SDS_P1;SDS_P2;PMS_P1;PMS_P2;Temp;Humidity;BMP_temperature;BMP_pressure;BME280_temperature;BME280_humidity;BME280_pressure;Samples;Min_cycle;Max_cycle;Signal;HPM_P1;HPM_P2
2021/03/26 00:00:40;;;;;;;37.33;21.27;;;;;;;1.68;36.15;99538.45;354240;113;1962051;-73
2021/03/26 00:01:50;;;;;;;35.05;19.99;;;;;;;1.67;36.22;99543.94;353119;113;1962132;-72
2021/03/26 00:02:56;;;;;;;33.09;19.74;;;;;;;1.67;36.32;99539.45;353583;113;1961952;-72
2021/03/26 00:04:05;;;;;;;31.68;18.77;;;;;;;1.65;36.43;99537.92;347841;115;1961985;-73
2021/03/26 00:05:15;;;;;;;27.92;15.64;;;;;;;1.63;36.31;99538.06;346578;117;1963009;-73
2021/03/26 00:06:28;;;;;;;28.83;16.17;;;;;;;1.62;36.19;99539.06;327767;116;2320928;-73
2021/03/26 00:07:34;;;;;;;38.25;22.41;;;;;;;1.63;36.18;99542.55;349564;115;1969004;-72
2021/03/26 00:08:40;;;;;;;37.60;20.58;;;;;;;1.65;36.31;99541.42;346558;115;1962033;-73
2021/03/26 00:09:46;;;;;;;36.11;20.22;;;;;;;1.65;36.31;99540.59;302241;117;2920050;-73
2021/03/26 00:10:51;;;;;;;34.46;19.63;;;;;;;1.63;36.36;99540.72;335439;113;1962931;-73
2021/03/26 00:12:00;;;;;;;33.59;20.48;;;;;;;1.61;36.34;99542.70;350194;115;1961979;-73
2021/03/26 00:13:07;;;;;;;39.73;21.98;;;;;;;1.59;36.35;99544.70;326708;114;1961993;-73
2021/03/26 00:14:13;;;;;;;35.52;19.10;;;;;;;1.61;36.46;99547.19;349817;114;1961972;-73
2021/03/26 00:15:20;;;;;;;36.61;20.31;;;;;;;1.60;36.38;99542.86;303658;114;2206370;31
2021/03/26 00:16:27;;;;;;;34.92;20.16;;;;;;;1.60;36.45;99538.38;340856;115;1961999;-73
2021/03/26 00:17:32;;;;;;;36.69;19.80;;;;;;;1.60;36.44;99534.88;323151;115;2228068;-73
2021/03/26 00:18:39;;;;;;;33.87;18.96;;;;;;;1.58;36.54;99543.00;344183;116;1962004;-72
2021/03/26 00:19:44;;;;;;;31.44;17.56;;;;;;;1.58;36.34;99535.02;351146;114;1962017;-72
2021/03/26 00:20:50;;;;;;;33.39;18.72;;;;;;;1.60;36.45;99540.20;343387;116;1961910;-72
2021/03/26 00:21:57;;;;;;;32.34;18.69;;;;;;;1.63;36.40;99539.89;322910;114;2518933;-73
2021/03/26 00:23:03;;;;;;;33.34;18.72;;;;;;;1.62;36.30;99544.39;348056;114;1963103;-72
2021/03/26 00:24:11;;;;;;;32.50;19.17;;;;;;;1.63;36.22;99540.72;344034;116;1962058;-72
2021/03/26 00:25:16;;;;;;;29.05;18.08;;;;;;;1.62;36.43;99540.89;350323;114;1962029;-73
2021/03/26 00:26:23;;;;;;;33.05;18.77;;;;;;;1.61;36.35;99542.70;349711;114;1964038;-73
2021/03/26 00:27:28;;;;;;;29.37;17.14;;;;;;;1.62;36.43;99543.56;317055;114;2636965;-72
2021/03/26 00:28:34;;;;;;;34.46;19.62;;;;;;;1.59;36.30;99539.38;331005;114;1961968;-72
2021/03/26 00:29:39;;;;;;;33.24;18.92;;;;;;;1.59;36.48;99543.83;349962;114;1963017;-72
2021/03/26 00:30:45;;;;;;;33.02;19.42;;;;;;;1.58;36.50;99540.34;350071;114;1962061;-72
2021/03/26 00:31:51;;;;;;;32.22;18.54;;;;;;;1.58;36.46;99550.16;343970;116;1962923;-73
2021/03/26 00:32:57;;;;;;;37.11;19.09;;;;;;;1.57;36.76;99544.00;314491;114;2205975;-73
2021/03/26 00:34:02;;;;;;;35.35;21.75;;;;;;;1.59;36.70;99547.36;357394;111;1961949;-72
2021/03/26 00:35:11;;;;;;;31.71;19.66;;;;;;;1.57;36.88;99544.00;358563;111;1962025;-73
2021/03/26 00:36:17;;;;;;;35.47;20.80;;;;;;;1.54;36.86;99542.48;358608;111;1962054;-72
2021/03/26 00:37:23;;;;;;;36.92;21.12;;;;;;;1.54;36.76;99541.65;357392;111;1961966;-72
2021/03/26 00:38:30;;;;;;;31.08;18.04;;;;;;;1.56;36.90;99542.31;330244;111;2528859;-72
2021/03/26 00:39:36;;;;;;;32.28;19.42;;;;;;;1.54;36.74;99537.16;358208;111;1961024;-74
2021/03/26 00:40:43;;;;;;;34.41;20.25;;;;;;;1.52;36.88;99536.45;319465;111;2724896;-72
2021/03/26 00:41:48;;;;;;;35.50;19.22;;;;;;;1.50;36.86;99540.27;337337;111;1962009;-72
2021/03/26 00:42:54;;;;;;;32.18;17.99;;;;;;;1.48;37.06;99544.89;357820;111;1961919;-72
2021/03/26 00:44:00;;;;;;;30.03;16.47;;;;;;;1.45;37.08;99537.21;357035;111;1964013;-72
2021/03/26 00:45:08;;;;;;;30.94;18.26;;;;;;;1.43;37.00;99540.05;357384;111;1962020;-72
2021/03/26 00:46:13;;;;;;;35.98;19.31;;;;;;;1.42;37.17;99545.50;358346;111;1962023;-72
2021/03/26 00:47:19;;;;;;;32.97;18.84;;;;;;;1.40;37.31;99540.31;357260;111;1962986;-72
2021/03/26 00:48:25;;;;;;;33.87;19.46;;;;;;;1.37;37.25;99540.62;338890;111;2222942;-72
2021/03/26 00:49:31;;;;;;;33.18;19.15;;;;;;;1.34;37.54;99540.09;357646;111;1962982;-72
2021/03/26 00:50:40;;;;;;;35.98;19.54;;;;;;;1.33;37.45;99543.75;357830;111;1961969;-73
2021/03/26 00:51:45;;;;;;;31.12;18.54;;;;;;;1.28;37.61;99539.70;357564;111;1964000;-73
2021/03/26 00:52:51;;;;;;;37.27;21.64;;;;;;;1.27;37.59;99546.02;357637;111;1961958;-72
2021/03/26 00:53:57;;;;;;;30.97;17.78;;;;;;;1.24;37.67;99538.31;341584;111;2865997;-72
2021/03/26 00:55:04;;;;;;;31.20;18.31;;;;;;;1.22;37.68;99542.14;333336;111;1964031;-73
2021/03/26 00:56:10;;;;;;;32.63;19.82;;;;;;;1.19;37.99;99539.75;358591;111;1962096;-73
2021/03/26 00:57:16;;;;;;;36.04;19.86;;;;;;;1.17;37.96;99547.06;324857;111;2633049;-72
2021/03/26 00:58:25;;;;;;;31.95;20.91;;;;;;;1.16;38.17;99545.38;357592;111;1963042;-73
2021/03/26 00:59:30;;;;;;;33.89;19.58;;;;;;;1.15;38.16;99546.38;339808;111;2208020;-72
2021/03/26 01:00:39;;;;;;;36.70;19.51;;;;;;;1.12;38.49;99546.67;357387;111;1962022;-72
2021/03/26 01:01:48;;;;;;;34.58;20.94;;;;;;;1.09;38.34;99550.47;357992;111;1961973;-72
2021/03/26 01:02:54;;;;;;;40.67;22.21;;;;;;;1.06;38.39;99543.62;338879;111;2217978;-72
2021/03/26 01:04:00;;;;;;;38.93;21.01;;;;;;;0.85;38.52;99521.75;357807;111;1961950;-72
2021/03/26 01:05:13;;;;;;;36.54;19.96;;;;;;;0.98;38.90;99551.50;358829;111;1961981;-73
2021/03/26 01:06:20;;;;;;;31.44;17.99;;;;;;;0.96;38.73;99552.63;357684;111;1962010;-72
2021/03/26 01:07:37;;;;;;;38.18;19.96;;;;;;;0.94;38.50;99547.45;357473;111;1962046;-72
2021/03/26 01:08:43;;;;;;;37.29;20.71;;;;;;;0.93;38.57;99548.44;355150;113;1963962;-72
2021/03/26 01:09:51;;;;;;;33.30;21.28;;;;;;;0.90;38.96;99542.56;355362;111;1963944;-72
2021/03/26 01:11:06;;;;;;;33.94;20.12;;;;;;;0.88;38.85;99550.70;336762;113;1963951;-72
2021/03/26 01:12:11;;;;;;;39.42;21.67;;;;;;;0.85;38.99;99546.52;348604;115;1962014;-72
2021/03/26 01:13:18;;;;;;;39.03;21.31;;;;;;;0.83;39.28;99551.13;347186;114;1963975;-73
2021/03/26 01:14:24;;;;;;;30.36;18.87;;;;;;;0.81;39.13;99553.09;319716;114;2606005;-72
2021/03/26 01:15:30;;;;;;;34.54;17.62;;;;;;;0.80;39.16;99553.26;350869;114;1963979;-71
2021/03/26 01:16:37;;;;;;;35.48;19.86;;;;;;;0.79;39.15;99549.73;350960;114;1964002;-71
2021/03/26 01:17:44;;;;;;;36.65;20.46;;;;;;;0.77;39.32;99550.89;326191;114;1961987;-71
2021/03/26 01:18:50;;;;;;;33.74;19.54;;;;;;;0.73;39.63;99549.50;352332;112;1961926;-73
2021/03/26 01:19:57;;;;;;;36.24;20.81;;;;;;;0.71;39.86;99548.80;351178;114;1962027;-72
2021/03/26 01:21:03;;;;;;;31.08;18.28;;;;;;;0.69;39.54;99550.76;351120;114;1961957;-72
2021/03/26 01:22:12;;;;;;;35.73;21.83;;;;;;;0.68;39.73;99559.73;351911;114;1962054;-72
2021/03/26 01:23:19;;;;;;;31.24;18.27;;;;;;;0.64;39.78;99549.39;352031;114;1961960;-72
2021/03/26 01:24:24;;;;;;;33.76;19.15;;;;;;;0.62;39.86;99555.83;324576;114;2523988;-71
2021/03/26 01:25:33;;;;;;;32.65;18.72;;;;;;;0.59;39.87;99553.47;344949;114;1964973;-72
2021/03/26 01:26:41;;;;;;;30.14;16.81;;;;;;;0.57;39.88;99545.63;350997;114;1965005;-72
2021/03/26 01:28:01;;;;;;;34.91;18.78;;;;;;;0.58;39.67;99549.98;351515;112;1964000;-72
2021/03/26 01:29:08;;;;;;;31.92;18.67;;;;;;;0.56;40.16;99557.25;332571;114;2334938;-72
2021/03/26 01:30:20;;;;;;;31.72;17.96;;;;;;;0.57;39.80;99550.11;326539;112;2473019;-72
2021/03/26 01:31:27;;;;;;;33.77;19.06;;;;;;;0.57;39.76;99561.58;351491;114;1962968;-71
2021/03/26 01:32:35;;;;;;;33.02;16.83;;;;;;;0.56;40.21;99557.25;351766;114;1962949;-72
2021/03/26 01:33:40;;;;;;;30.05;18.47;;;;;;;0.56;39.92;99548.45;332035;114;2231993;-71
2021/03/26 01:34:46;;;;;;;31.43;17.69;;;;;;;0.56;39.97;99556.42;351589;114;1961898;-72
2021/03/26 01:35:52;;;;;;;32.82;20.04;;;;;;;0.56;39.97;99554.59;352411;114;1961993;-72
2021/03/26 01:36:59;;;;;;;30.39;16.38;;;;;;;0.55;40.03;99560.88;352466;114;1963980;-72
2021/03/26 01:38:06;;;;;;;30.28;16.89;;;;;;;0.53;40.05;99559.34;338777;112;1962035;-72
2021/03/26 01:39:13;;;;;;;28.63;17.58;;;;;;;0.53;40.21;99562.00;317366;114;2021186;-71
2021/03/26 01:40:25;;;;;;;30.30;17.62;;;;;;;0.50;40.12;99560.47;353900;114;1963043;-73
2021/03/26 01:41:40;;;;;;;28.49;16.02;;;;;;;0.47;40.35;99557.27;346806;116;1961983;-72
2021/03/26 01:42:51;;;;;;;22.43;13.22;;;;;;;0.46;40.08;99564.41;348199;114;1961927;-72
2021/03/26 01:43:56;;;;;;;25.66;14.16;;;;;;;0.47;39.99;99554.61;312612;114;2105383;-71
2021/03/26 01:45:05;;;;;;;30.03;18.23;;;;;;;0.49;40.00;99557.97;350710;114;1962947;-73
2021/03/26 01:46:16;;;;;;;26.48;14.97;;;;;;;0.49;40.02;99557.97;352030;112;1963971;-71
2021/03/26 01:47:22;;;;;;;29.52;15.39;;;;;;;0.01;40.16;99481.88;352580;114;1969954;-72
2021/03/26 01:48:40;;;;;;;30.24;15.85;;;;;;;0.50;40.08;99562.29;343774;117;1961956;-72
2021/03/26 01:49:45;;;;;;;27.27;15.35;;;;;;;0.52;40.02;99560.33;351537;114;1961911;-71
2021/03/26 01:50:53;;;;;;;25.94;14.66;;;;;;;0.55;39.94;99560.04;351954;114;1963976;-72
2021/03/26 01:51:59;;;;;;;25.05;13.51;;;;;;;0.57;39.81;99563.40;351886;111;1962024;-72
2021/03/26 01:53:06;;;;;;;26.21;14.03;;;;;;;0.60;39.65;99557.79;341381;118;1961970;-72
2021/03/26 01:54:19;;;;;;;22.97;13.33;;;;;;;0.47;39.63;99526.21;352977;114;1961958;-72
2021/03/26 01:55:38;;;;;;;23.73;13.49;;;;;;;0.68;39.55;99560.56;351976;114;1964042;-72
2021/03/26 01:56:45;;;;;;;26.02;13.53;;;;;;;0.72;39.51;99553.15;346886;116;1961915;-72
2021/03/26 01:58:05;;;;;;;24.73;13.28;;;;;;;0.75;39.50;99553.69;330051;121;1962003;-72
2021/03/26 01:59:13;;;;;;;25.12;14.33;;;;;;;0.76;39.45;99558.01;336269;117;1961897;-72
2021/03/26 02:00:35;;;;;;;26.83;14.86;;;;;;;0.75;39.58;99552.86;298350;115;2225686;-72
2021/03/26 02:01:46;;;;;;;29.15;14.55;;;;;;;0.72;39.63;99555.81;303552;117;2808934;-72
2021/03/26 02:02:54;;;;;;;25.84;12.88;;;;;;;0.70;39.70;99555.11;301673;117;2835046;-73
2021/03/26 02:04:23;;;;;;;27.57;14.24;;;;;;;0.68;39.80;99560.56;342788;117;1962989;-72
2021/03/26 02:05:30;;;;;;;28.63;14.67;;;;;;;0.68;39.76;99559.73;344839;117;1969974;-73
2021/03/26 02:06:53;;;;;;;27.91;14.27;;;;;;;0.67;39.84;99560.72;297169;117;2236222;-73
2021/03/26 02:07:59;;;;;;;24.14;13.34;;;;;;;0.68;39.77;99565.05;345754;117;1962112;-72
2021/03/26 02:09:10;;;;;;;27.42;15.33;;;;;;;0.65;39.93;99556.37;344566;116;1962040;-72
2021/03/26 02:10:22;;;;;;;26.26;14.59;;;;;;;0.63;40.06;99560.98;344059;116;1962032;-72
2021/03/26 02:11:32;;;;;;;47.15;15.64;;;;;;;0.60;40.22;99566.59;328191;117;2898093;-72
2021/03/26 02:12:39;;;;;;;21.52;13.49;;;;;;;0.59;40.25;99564.94;312169;114;2208048;-72
2021/03/26 02:13:50;;;;;;;23.31;13.76;;;;;;;0.59;40.24;99564.09;345623;117;1962067;-72
2021/03/26 02:15:01;;;;;;;26.59;13.94;;;;;;;0.58;40.21;99568.59;298944;114;2234930;-72
2021/03/26 02:16:08;;;;;;;29.27;14.78;;;;;;;0.57;40.13;99566.89;323963;116;2398958;-72
2021/03/26 02:17:20;;;;;;;27.54;14.75;;;;;;;0.57;40.45;99571.38;316584;117;2534323;-72
2021/03/26 02:18:33;;;;;;;27.32;13.82;;;;;;;0.57;40.32;99572.20;343278;117;1964936;-72
2021/03/26 02:19:47;;;;;;;27.84;15.17;;;;;;;0.56;40.27;99565.23;302618;117;2835060;-72
2021/03/26 02:20:57;;;;;;;26.91;15.06;;;;;;;0.54;40.36;99572.50;342376;118;1963042;-72
2021/03/26 02:22:03;;;;;;;26.80;14.59;;;;;;;0.54;40.50;99566.35;343117;116;1966044;-72
2021/03/26 02:23:14;;;;;;;29.48;15.31;;;;;;;0.53;40.55;99575.28;309848;117;2209936;-72
2021/03/26 02:24:24;;;;;;;27.92;16.11;;;;;;;0.51;40.61;99570.13;343982;116;1964057;-72
2021/03/26 02:25:30;;;;;;;24.97;15.21;;;;;;;0.51;40.79;99562.16;344794;115;1961961;-72
2021/03/26 02:26:40;;;;;;;28.96;15.22;;;;;;;0.50;40.77;99572.92;344932;117;1964024;-72
2021/03/26 02:27:46;;;;;;;25.76;14.57;;;;;;;0.50;40.79;99567.61;311184;117;2666996;-72
2021/03/26 02:28:53;;;;;;;26.26;14.87;;;;;;;0.47;40.79;99571.39;335118;116;1962020;-72
2021/03/26 02:30:26;;;;;;;28.19;13.89;;;;;;;0.48;40.83;99572.22;343539;117;1962058;-72
2021/03/26 02:31:32;;;;;;;26.51;13.45;;;;;;;0.49;40.74;99566.77;345504;114;1961988;-72
2021/03/26 02:32:52;;;;;;;27.75;14.22;;;;;;;0.49;40.72;99569.44;343842;117;1961938;-72
2021/03/26 02:33:59;;;;;;;23.81;14.39;;;;;;;0.48;40.76;99573.08;318077;114;1996787;-72
2021/03/26 02:35:15;;;;;;;26.70;14.64;;;;;;;0.49;40.78;99571.26;351624;114;1961975;-72
2021/03/26 02:36:32;;;;;;;26.79;14.83;;;;;;;0.49;40.88;99569.44;323957;113;2521920;-71
2021/03/26 02:37:43;;;;;;;25.96;14.25;;;;;;;0.49;40.94;99577.41;350546;113;1962104;-71
2021/03/26 02:38:52;;;;;;;25.34;15.44;;;;;;;0.52;40.70;99569.14;351891;113;1961009;-71
2021/03/26 02:40:17;;;;;;;28.60;15.38;;;;;;;0.52;40.81;99569.14;351025;113;1962042;-71
2021/03/26 02:41:29;;;;;;;27.23;13.18;;;;;;;0.52;40.97;99574.45;349710;115;1961999;-72
2021/03/26 02:42:35;;;;;;;25.00;13.49;;;;;;;0.57;40.76;99574.86;324907;115;2486951;-71
2021/03/26 02:43:51;;;;;;;22.46;13.74;;;;;;;0.58;40.77;99573.03;346922;115;1963003;-71
2021/03/26 02:45:04;;;;;;;28.36;15.17;;;;;;;0.58;40.86;99576.56;346524;116;1962058;-71
2021/03/26 02:46:28;;;;;;;26.87;13.54;;;;;;;0.58;41.10;99578.35;349512;109;1960758;-71
2021/03/26 02:47:38;;;;;;;21.72;11.98;;;;;;;0.61;40.85;99578.09;351273;113;1962890;-71
2021/03/26 02:49:05;;;;;;;24.73;13.45;;;;;;;0.59;40.77;99578.22;350142;113;1962984;-71
2021/03/26 02:50:35;;;;;;;24.56;13.04;;;;;;;0.59;41.14;99574.73;319805;113;1962959;-71
2021/03/26 02:52:09;;;;;;;26.52;13.23;;;;;;;0.59;40.84;99580.88;326243;113;2234828;-71
2021/03/26 02:53:22;;;;;;;21.15;12.49;;;;;;;0.59;40.87;99578.22;309271;121;2203968;-71
2021/03/26 02:54:35;;;;;;;26.68;13.78;;;;;;;0.57;40.95;99579.34;340928;115;1963901;-70
2021/03/26 02:55:48;;;;;;;;;;;;;;;0.56;41.06;99573.20;353843;113;1962969;-72
2021/03/26 02:57:07;;;;;;;25.96;13.53;;;;;;;0.56;41.08;99577.69;349917;113;1960946;-71
2021/03/26 02:58:19;;;;;;;28.44;15.93;;;;;;;0.54;41.05;99576.98;308594;113;2234929;-71
2021/03/26 02:59:49;;;;;;;26.10;14.37;;;;;;;0.54;41.23;99582.30;332783;116;2870962;-71
2021/03/26 03:01:02;;;;;;;30.01;15.71;;;;;;;0.51;41.53;99583.42;350851;113;1961997;-71
2021/03/26 03:02:09;;;;;;;28.06;17.12;;;;;;;0.47;41.51;99584.67;341421;116;1962054;-71
2021/03/26 03:03:28;;;;;;;32.62;16.22;;;;;;;0.39;42.18;99590.70;303265;118;2216987;-71
2021/03/26 03:04:50;;;;;;;30.98;16.85;;;;;;;0.31;42.37;99581.77;304757;113;2848992;-71
2021/03/26 03:06:02;;;;;;;30.54;16.45;;;;;;;0.27;42.04;99593.69;348361;114;1961910;-71
2021/03/26 03:07:16;;;;;;;34.27;17.40;;;;;;;0.21;42.62;99585.30;346820;114;1968748;-72
2021/03/26 03:08:33;;;;;;;31.64;17.89;;;;;;;0.15;42.86;99591.16;322942;124;1960845;-72
2021/03/26 03:09:44;;;;;;;33.02;19.24;;;;;;;0.06;42.85;99581.39;348522;115;1960786;-71
2021/03/26 03:10:54;;;;;;;35.48;19.59;;;;;;;0.02;43.10;99595.08;343407;117;1960950;-72
2021/03/26 03:12:08;;;;;;;35.42;18.49;;;;;;;-0.05;43.40;99592.16;338152;117;1960780;-72
2021/03/26 03:13:19;;;;;;;35.48;19.65;;;;;;;-0.08;43.94;99598.59;308015;117;2703951;-72
2021/03/26 03:14:35;;;;;;;31.60;18.41;;;;;;;-0.12;44.24;99588.38;305069;115;2221882;-72
2021/03/26 03:16:13;;;;;;;32.16;19.05;;;;;;;-0.14;44.56;99587.67;347041;115;1961954;-71
2021/03/26 03:17:26;;;;;;;34.79;19.48;;;;;;;-0.22;44.98;99589.20;309760;119;1961996;-71
2021/03/26 03:18:37;;;;;;;34.15;19.09;;;;;;;-0.31;45.67;99594.52;335891;115;2210016;-70
2021/03/26 03:19:53;;;;;;;32.38;17.73;;;;;;;-0.33;45.48;99599.12;311131;109;2145182;-69
2021/03/26 03:21:14;;;;;;;35.62;20.66;;;;;;;-0.38;45.43;99599.52;352080;110;1961935;-71
2021/03/26 03:22:29;;;;;;;34.13;18.72;;;;;;;-0.45;45.54;99599.25;350699;113;1961955;-70
2021/03/26 03:23:49;;;;;;;35.83;19.72;;;;;;;-0.48;46.20;99601.31;353858;110;1959707;-71
2021/03/26 03:25:10;;;;;;;35.59;20.09;;;;;;;-0.51;45.76;99601.59;345515;111;2902069;-71
2021/03/26 03:26:52;;;;;;;35.46;18.89;;;;;;;-0.56;45.94;99603.81;362478;111;1962028;-71
2021/03/26 03:28:25;;;;;;;32.67;17.15;;;;;;;-0.57;46.36;99610.11;326496;113;2953983;-72
2021/03/26 03:29:43;;;;;;;37.33;17.92;;;;;;;-0.60;46.56;99613.88;327469;115;2427920;-84
2021/03/26 03:31:10;;;;;;;30.16;17.19;;;;;;;-0.64;46.86;99608.96;351116;115;1961984;-71
2021/03/26 03:32:35;;;;;;;32.87;18.30;;;;;;;-0.69;47.00;99612.87;314932;115;2691981;-71
2021/03/26 03:33:55;;;;;;;31.96;18.20;;;;;;;-0.74;47.10;99617.75;350046;114;1962017;-71
2021/03/26 03:35:24;;;;;;;33.50;18.48;;;;;;;-0.76;47.36;99614.38;310432;115;2228981;-70
2021/03/26 03:36:46;;;;;;;31.96;18.36;;;;;;;-0.77;47.35;99617.98;346531;114;1962035;-71
2021/03/26 03:38:19;;;;;;;29.34;16.29;;;;;;;-0.82;47.50;99617.58;351555;115;1962043;-71
2021/03/26 03:39:31;;;;;;;30.62;18.04;;;;;;;-0.83;47.22;99618.53;342232;118;1961971;-70
2021/03/26 03:40:52;;;;;;;29.18;16.32;;;;;;;-0.81;48.28;99615.77;322222;115;1962007;-71
2021/03/26 03:42:01;;;;;;;33.49;18.09;;;;;;;-0.81;49.00;99615.77;306416;114;2202855;-71
2021/03/26 03:43:28;;;;;;;31.58;18.01;;;;;;;-0.81;48.53;99618.42;328042;115;2451007;-71
2021/03/26 03:44:47;;;;;;;31.28;17.23;;;;;;;-0.81;48.61;99623.72;350444;114;1964977;-71
2021/03/26 03:46:13;;;;;;;30.07;16.82;;;;;;;-0.82;49.00;99620.23;350710;114;1962903;-71
2021/03/26 03:47:30;;;;;;;33.37;17.16;;;;;;;-0.82;49.29;99624.67;348808;115;1962932;-71
2021/03/26 03:49:07;;;;;;;31.26;16.91;;;;;;;-0.79;49.71;99627.08;340218;115;2212052;-70
2021/03/26 03:50:29;;;;;;;33.43;16.64;;;;;;;-0.78;49.74;99626.10;317719;114;2021306;-70
2021/03/26 03:51:58;;;;;;;30.03;16.17;;;;;;;-0.78;49.43;99628.75;351249;115;1963035;-71
2021/03/26 03:53:13;;;;;;;30.11;15.73;;;;;;;-0.77;50.00;99628.59;351738;113;1962962;-70
2021/03/26 03:54:45;;;;;;;31.92;17.71;;;;;;;-0.78;50.29;99626.10;352207;113;1961964;-70
2021/03/26 03:55:54;;;;;;;30.59;15.85;;;;;;;-0.78;49.55;99620.80;328715;116;1963975;-71
2021/03/26 03:57:09;;;;;;;29.28;16.03;;;;;;;-0.78;49.96;99623.45;316833;116;1963921;-71
2021/03/26 03:58:21;;;;;;;31.50;16.35;;;;;;;-0.78;50.65;99621.63;328258;116;1963978;-71
2021/03/26 03:59:55;;;;;;;28.66;17.05;;;;;;;-0.79;50.40;99625.27;323586;114;1963948;-71
2021/03/26 04:01:15;;;;;;;28.47;15.50;;;;;;;-0.76;50.54;99630.30;304051;114;2214939;-71
2021/03/26 04:02:34;;;;;;;30.46;16.39;;;;;;;-0.73;50.76;99623.88;342667;114;2894014;-72
2021/03/26 04:03:54;;;;;;;33.78;16.36;;;;;;;-0.72;50.75;99622.90;309017;116;2104953;-71
2021/03/26 04:05:30;;;;;;;30.17;15.14;;;;;;;-0.71;51.82;99613.98;324326;114;2454990;-72
2021/03/26 04:06:48;;;;;;;29.83;15.47;;;;;;;-0.71;51.05;99620.13;349464;114;1963031;-72
2021/03/26 04:08:00;;;;;;;28.19;14.48;;;;;;;-0.68;52.24;99619.02;323585;114;2234804;-70
2021/03/26 04:09:10;;;;;;;32.49;17.85;;;;;;;-0.67;51.55;99624.17;349830;114;1961924;-71
2021/03/26 04:10:18;;;;;;;23.54;14.32;;;;;;;-0.64;51.74;99625.72;329214;114;2356994;-72
2021/03/26 04:11:43;;;;;;;22.88;11.86;;;;;;;-0.62;52.13;99621.12;347546;114;1962978;-72
2021/03/26 04:12:57;;;;;;;36.56;16.98;;;;;;;-0.60;53.36;99621.00;348161;114;1961998;-71
2021/03/26 04:14:16;;;;;;;34.11;15.73;;;;;;;-0.59;52.57;99625.31;347343;114;1961976;-71
2021/03/26 04:15:34;;;;;;;29.38;16.38;;;;;;;-0.57;52.28;99624.20;349226;114;1961941;-72
2021/03/26 04:16:45;;;;;;;33.21;18.63;;;;;;;-0.54;52.81;99623.93;349312;114;1963001;-72
2021/03/26 04:18:05;;;;;;;28.84;16.44;;;;;;;-0.50;52.75;99628.00;342902;116;1961919;-71
2021/03/26 04:19:25;;;;;;;32.61;17.66;;;;;;;-0.49;53.70;99629.67;337152;118;1961936;-72
2021/03/26 04:20:44;;;;;;;37.77;19.91;;;;;;;-0.48;53.54;99625.20;339299;119;1961960;-71
2021/03/26 04:21:56;;;;;;;32.58;17.30;;;;;;;-0.47;53.05;99629.55;295651;119;2881996;-71
2021/03/26 04:23:09;;;;;;;36.24;19.26;;;;;;;-0.47;52.87;99634.85;337399;119;1963957;-71
2021/03/26 04:24:30;;;;;;;31.95;18.39;;;;;;;-0.46;52.91;99631.21;339334;117;1970874;-71
2021/03/26 04:25:44;;;;;;;31.95;19.35;;;;;;;-0.45;52.61;99633.74;340000;118;1963050;-71
2021/03/26 04:27:13;;;;;;;31.93;17.53;;;;;;;-0.43;53.06;99638.06;326994;122;1963960;-71
2021/03/26 04:28:36;;;;;;;29.94;16.52;;;;;;;-0.46;52.88;99634.70;292351;124;2073593;-71
2021/03/26 04:30:11;;;;;;;31.61;18.71;;;;;;;-0.45;54.16;99632.88;342765;114;1961990;-71
2021/03/26 04:31:25;;;;;;;32.64;19.17;;;;;;;-0.48;53.66;99638.47;348225;114;1962949;-71
2021/03/26 04:32:34;;;;;;;33.43;17.67;;;;;;;-0.47;53.79;99638.34;348256;114;1961904;-72
2021/03/26 04:33:40;;;;;;;32.93;19.90;;;;;;;-0.45;54.09;99632.88;345869;115;1961967;-71
2021/03/26 04:34:47;;;;;;;32.91;20.24;;;;;;;-0.46;53.86;99634.70;316703;114;2229981;-70
2021/03/26 04:35:56;;;;;;;33.72;18.49;;;;;;;-0.45;54.02;99638.19;349763;114;1963966;-70
2021/03/26 04:37:25;;;;;;;40.28;20.35;;;;;;;-0.45;54.37;99636.40;347312;114;1961967;-71
2021/03/26 04:38:48;;;;;;;30.33;18.57;;;;;;;-0.43;54.29;99635.41;350324;114;1961977;-71
2021/03/26 04:40:00;;;;;;;32.48;17.94;;;;;;;-0.41;54.68;99642.27;299809;119;2224075;-71
2021/03/26 04:41:14;;;;;;;34.98;19.62;;;;;;;-0.41;54.65;99639.61;297130;119;2783012;-71
2021/03/26 04:42:23;;;;;;;35.04;18.83;;;;;;;-0.38;54.52;99644.64;333206;119;1961984;-71
2021/03/26 04:43:35;;;;;;;34.84;17.64;;;;;;;-0.35;55.04;99638.22;326269;123;1961968;-71
2021/03/26 04:45:06;;;;;;;31.91;17.43;;;;;;;-0.32;54.65;99645.91;347691;114;1962023;-71
2021/03/26 04:46:37;;;;;;;38.78;17.87;;;;;;;-0.30;54.85;99647.45;350909;114;1963653;-71
2021/03/26 04:48:06;;;;;;;32.85;16.98;;;;;;;-0.25;54.91;99647.05;331994;111;2264771;-71
2021/03/26 04:49:37;;;;;;;29.08;16.43;;;;;;;-0.20;56.13;99652.78;351524;115;1962003;-71
2021/03/26 04:50:47;;;;;;;32.69;16.58;;;;;;;-0.18;55.17;99652.66;334256;115;1963969;-71
2021/03/26 04:52:02;;;;;;;29.56;17.01;;;;;;;-0.20;56.80;99651.95;325858;115;1961974;-72
2021/03/26 04:53:14;;;;;;;30.53;15.77;;;;;;;-0.21;55.89;99651.12;350486;115;1961967;-71
2021/03/26 04:54:44;;;;;;;33.88;16.94;;;;;;;-0.20;56.33;99667.88;311833;115;2763069;-72
2021/03/26 04:56:14;;;;;;;30.66;16.63;;;;;;;-0.19;56.52;99658.92;306122;115;2890943;-71
2021/03/26 04:57:55;;;;;;;30.33;16.08;;;;;;;-0.18;56.50;99657.97;342418;117;1961934;-71
2021/03/26 04:59:05;;;;;;;29.92;17.29;;;;;;;-0.16;55.93;99664.82;338705;117;1961981;-70
2021/03/26 05:00:32;;;;;;;30.78;16.69;;;;;;;-0.12;56.07;99662.72;311696;112;2061617;-71
2021/03/26 05:01:42;;;;;;;29.08;16.06;;;;;;;-0.10;57.22;99664.26;344907;115;1962987;-71
2021/03/26 05:02:54;;;;;;;31.10;16.77;;;;;;;-0.06;56.79;99667.47;340038;115;1962948;-71
2021/03/26 05:04:24;;;;;;;29.18;16.71;;;;;;;-0.04;57.32;99665.52;340152;117;1961991;-72
2021/03/26 05:05:33;;;;;;;32.08;16.21;;;;;;;-0.02;57.36;99660.92;308257;118;2639988;-71
2021/03/26 05:06:47;;;;;;;26.33;15.51;;;;;;;-0.01;56.84;99662.58;318320;117;1961979;-71
2021/03/26 05:07:57;;;;;;;36.52;18.97;;;;;;;0.01;56.85;99665.95;342737;117;1961924;-71
2021/03/26 05:09:07;;;;;;;29.08;16.87;;;;;;;0.03;57.49;99658.69;306451;117;2719042;-71
2021/03/26 05:10:17;;;;;;;27.75;15.97;;;;;;;0.07;57.54;99662.73;327655;117;2287004;-71
2021/03/26 05:11:44;;;;;;;29.97;18.55;;;;;;;0.10;57.66;99666.92;299487;117;2857075;-71
2021/03/26 05:12:56;;;;;;;29.26;17.27;;;;;;;0.11;58.01;99664.14;307615;121;2217985;-71
2021/03/26 05:14:10;;;;;;;29.25;17.10;;;;;;;0.15;57.83;99662.87;321043;115;2476347;-71
2021/03/26 05:15:28;;;;;;;28.68;17.27;;;;;;;0.18;57.48;99664.41;345177;115;1962075;-71
2021/03/26 05:16:41;;;;;;;30.37;16.25;;;;;;;0.21;58.37;99662.33;343315;115;1962054;-72
2021/03/26 05:18:09;;;;;;;28.22;16.26;;;;;;;0.24;57.82;99660.35;314713;118;1961961;-72
2021/03/26 05:19:20;;;;;;;30.67;17.48;;;;;;;0.29;58.09;99664.30;341397;118;1962000;-72
2021/03/26 05:20:31;;;;;;;28.72;17.24;;;;;;;0.32;58.37;99668.45;336549;118;1961876;-71
2021/03/26 05:22:16;;;;;;;29.39;17.34;;;;;;;0.34;57.71;99659.37;331676;120;1962013;-72
2021/03/26 05:23:50;;;;;;;32.77;16.28;;;;;;;0.39;57.60;99666.93;321315;125;1962040;-71
2021/03/26 05:25:38;;;;;;;33.21;17.72;;;;;;;0.42;57.75;99670.16;337999;117;1962012;-71
2021/03/26 05:26:49;;;;;;;29.90;17.98;;;;;;;0.46;57.98;99669.88;338630;117;1962047;-71
2021/03/26 05:28:07;;;;;;;29.28;16.81;;;;;;;0.50;57.95;99666.77;338519;117;1964024;-71
2021/03/26 05:29:13;;;;;;;31.49;18.06;;;;;;;0.54;57.68;99670.84;338587;117;1962939;-71
2021/03/26 05:30:24;;;;;;;31.98;17.21;;;;;;;0.57;58.07;99667.89;339363;117;1961957;-71
2021/03/26 05:31:59;;;;;;;28.04;16.49;;;;;;;0.60;58.00;99664.95;295987;120;2903012;-71
2021/03/26 05:33:11;;;;;;;29.47;16.38;;;;;;;0.65;57.84;99669.84;291081;120;2239978;-72
2021/03/26 05:34:27;;;;;;;29.20;18.06;;;;;;;0.72;57.90;99670.96;331456;120;1963950;-72